Landers, California
Current Conditions -  °F | °C
As of 8:56 AM on Thursday 30 Oct 2014 (Local Time) from KNXP Reporting Station
Scattered Clouds Scattered Clouds  
Wind Chill: 58°   Ceiling: Unl
Heat Index: 58°   Visibility: 10mi
Dew Point: 25°   Wind: 0mph
Humidity: 28%   Direction: NA
Pressure: 30.15"   Gusts: NA
Location:  34.27°N, 116.39°W
Report Text: KNXP 301556Z 00000KT 10SM SCT180 SCT220 14/M04 A3015 RMK AO2 SLP181 T01441039
Loading
Personal Weather Stations






























Interactive Weather Map
Tropical Storm Tracking
New forecast layout! Learn more

10-Day Weather Forecast

Advertisements
Track Severe Weather on mobile